sensor_id;sensor_type;location;lat;lon;timestamp;pressure;altitude;pressure_sealevel;temperature;humidity
71976;BME280;60680;52.182;5.398;2023-02-18T00:01:00;102193.22;;;9.69;100.00
71976;BME280;60680;52.182;5.398;2023-02-18T00:03:27;102193.22;;;9.69;100.00
71976;BME280;60680;52.182;5.398;2023-02-18T00:05:54;102196.66;;;9.70;100.00
71976;BME280;60680;52.182;5.398;2023-02-18T00:08:21;102188.03;;;9.69;100.00
71976;BME280;60680;52.182;5.398;2023-02-18T00:10:48;102192.31;;;9.70;100.00
71976;BME280;60680;52.182;5.398;2023-02-18T00:13:14;102185.34;;;9.71;100.00
71976;BME280;60680;52.182;5.398;2023-02-18T00:15:41;102190.56;;;9.71;100.00
71976;BME280;60680;52.182;5.398;2023-02-18T00:18:07;102197.50;;;9.70;100.00
71976;BME280;60680;52.182;5.398;2023-02-18T00:20:34;102191.44;;;9.71;100.00
71976;BME280;60680;52.182;5.398;2023-02-18T00:23:03;102182.75;;;9.71;100.00
71976;BME280;60680;52.182;5.398;2023-02-18T00:25:30;102182.72;;;9.72;100.00
71976;BME280;60680;52.182;5.398;2023-02-18T00:27:56;102180.97;;;9.73;100.00
71976;BME280;60680;52.182;5.398;2023-02-18T00:30:23;102183.56;;;9.73;100.00
71976;BME280;60680;52.182;5.398;2023-02-18T00:32:51;102181.84;;;9.73;100.00
71976;BME280;60680;52.182;5.398;2023-02-18T00:35:17;102181.78;;;9.75;100.00
71976;BME280;60680;52.182;5.398;2023-02-18T00:37:44;102168.84;;;9.73;100.00
71976;BME280;60680;52.182;5.398;2023-02-18T00:40:11;102174.91;;;9.74;100.00
71976;BME280;60680;52.182;5.398;2023-02-18T00:42:41;102175.78;;;9.73;100.00
71976;BME280;60680;52.182;5.398;2023-02-18T00:45:12;102180.97;;;9.73;100.00
71976;BME280;60680;52.182;5.398;2023-02-18T00:47:38;102174.09;;;9.72;100.00
71976;BME280;60680;52.182;5.398;2023-02-18T00:50:08;102161.97;;;9.71;100.00
71976;BME280;60680;52.182;5.398;2023-02-18T00:52:36;102159.44;;;9.69;100.00
71976;BME280;60680;52.182;5.398;2023-02-18T00:55:02;102161.16;;;9.69;100.00
71976;BME280;60680;52.182;5.398;2023-02-18T00:57:29;102157.69;;;9.68;100.00
71976;BME280;60680;52.182;5.398;2023-02-18T00:59:56;102156.00;;;9.67;100.00
71976;BME280;60680;52.182;5.398;2023-02-18T01:02:22;102160.41;;;9.65;100.00
71976;BME280;60680;52.182;5.398;2023-02-18T01:04:49;102159.53;;;9.65;100.00
71976;BME280;60680;52.182;5.398;2023-02-18T01:07:15;102154.31;;;9.65;100.00
71976;BME280;60680;52.182;5.398;2023-02-18T01:09:42;102151.81;;;9.62;100.00
71976;BME280;60680;52.182;5.398;2023-02-18T01:12:09;102146.63;;;9.62;100.00
71976;BME280;60680;52.182;5.398;2023-02-18T01:14:36;102153.56;;;9.61;100.00
71976;BME280;60680;52.182;5.398;2023-02-18T01:17:02;102153.56;;;9.61;100.00
71976;BME280;60680;52.182;5.398;2023-02-18T01:19:29;102146.66;;;9.60;100.00
71976;BME280;60680;52.182;5.398;2023-02-18T01:21:55;102149.31;;;9.58;100.00
71976;BME280;60680;52.182;5.398;2023-02-18T01:24:22;102142.34;;;9.59;100.00
71976;BME280;60680;52.182;5.398;2023-02-18T01:26:50;102146.72;;;9.58;100.00
71976;BME280;60680;52.182;5.398;2023-02-18T01:29:18;102156.28;;;9.56;100.00
71976;BME280;60680;52.182;5.398;2023-02-18T01:31:44;102146.78;;;9.54;100.00
71976;BME280;60680;52.182;5.398;2023-02-18T01:34:11;102146.84;;;9.52;100.00
71976;BME280;60680;52.182;5.398;2023-02-18T01:36:38;102148.56;;;9.53;100.00
71976;BME280;60680;52.182;5.398;2023-02-18T01:39:05;102141.66;;;9.52;100.00
71976;BME280;60680;52.182;5.398;2023-02-18T01:41:31;102126.13;;;9.49;100.00
71976;BME280;60680;52.182;5.398;2023-02-18T01:44:20;102140.03;;;9.48;100.00
71976;BME280;60680;52.182;5.398;2023-02-18T01:46:47;102132.38;;;9.42;100.00
71976;BME280;60680;52.182;5.398;2023-02-18T01:49:18;102126.38;;;9.40;100.00
71976;BME280;60680;52.182;5.398;2023-02-18T01:51:48;102129.91;;;9.37;100.00
71976;BME280;60680;52.182;5.398;2023-02-18T01:54:22;102124.72;;;9.36;100.00
71976;BME280;60680;52.182;5.398;2023-02-18T01:57:05;102122.13;;;9.36;100.00
71976;BME280;60680;52.182;5.398;2023-02-18T01:59:37;102110.13;;;9.32;100.00
71976;BME280;60680;52.182;5.398;2023-02-18T02:02:07;102127.47;;;9.30;100.00
71976;BME280;60680;52.182;5.398;2023-02-18T02:04:36;102122.31;;;9.28;100.00
71976;BME280;60680;52.182;5.398;2023-02-18T02:07:02;102117.09;;;9.30;100.00
71976;BME280;60680;52.182;5.398;2023-02-18T02:09:31;102100.66;;;9.29;100.00
71976;BME280;60680;52.182;5.398;2023-02-18T02:37:19;102025.53;;;9.22;100.00
71976;BME280;60680;52.182;5.398;2023-02-18T02:40:10;102010.84;;;9.21;100.00
71976;BME280;60680;52.182;5.398;2023-02-18T02:43:11;102005.59;;;9.22;100.00
71976;BME280;60680;52.182;5.398;2023-02-18T02:48:15;101985.69;;;9.23;100.00
71976;BME280;60680;52.182;5.398;2023-02-18T02:50:53;101983.94;;;9.23;100.00
71976;BME280;60680;52.182;5.398;2023-02-18T02:53:25;101981.34;;;9.23;100.00
71976;BME280;60680;52.182;5.398;2023-02-18T02:55:52;101982.19;;;9.24;100.00
71976;BME280;60680;52.182;5.398;2023-02-18T02:58:22;101975.22;;;9.24;100.00
71976;BME280;60680;52.182;5.398;2023-02-18T03:09:40;101957.00;;;9.27;100.00
71976;BME280;60680;52.182;5.398;2023-02-18T03:12:21;101956.97;;;9.29;100.00
71976;BME280;60680;52.182;5.398;2023-02-18T03:15:38;101948.25;;;9.30;100.00
71976;BME280;60680;52.182;5.398;2023-02-18T03:18:00;101952.56;;;9.31;100.00
71976;BME280;60680;52.182;5.398;2023-02-18T03:20:34;101944.78;;;9.31;100.00
71976;BME280;60680;52.182;5.398;2023-02-18T03:23:06;101947.31;;;9.32;100.00
71976;BME280;60680;52.182;5.398;2023-02-18T03:25:35;101939.53;;;9.32;100.00
71976;BME280;60680;52.182;5.398;2023-02-18T03:28:10;101928.19;;;9.35;100.00
71976;BME280;60680;52.182;5.398;2023-02-18T03:30:41;101922.97;;;9.36;100.00
71976;BME280;60680;52.182;5.398;2023-02-18T03:33:13;101911.69;;;9.37;100.00
71976;BME280;60680;52.182;5.398;2023-02-18T03:35:42;101907.34;;;9.38;100.00
71976;BME280;60680;52.182;5.398;2023-02-18T03:38:20;101905.53;;;9.40;100.00
71976;BME280;60680;52.182;5.398;2023-02-18T03:40:49;101899.44;;;9.41;100.00
71976;BME280;60680;52.182;5.398;2023-02-18T03:43:16;101890.78;;;9.42;100.00
71976;BME280;60680;52.182;5.398;2023-02-18T03:45:43;101886.41;;;9.43;100.00
71976;BME280;60680;52.182;5.398;2023-02-18T03:48:09;101881.22;;;9.43;100.00
71976;BME280;60680;52.182;5.398;2023-02-18T03:50:36;101888.13;;;9.44;100.00
71976;BME280;60680;52.182;5.398;2023-02-18T03:53:02;101882.06;;;9.43;100.00
71976;BME280;60680;52.182;5.398;2023-02-18T03:55:29;101881.22;;;9.43;100.00
71976;BME280;60680;52.182;5.398;2023-02-18T03:57:55;101874.28;;;9.43;100.00
71976;BME280;60680;52.182;5.398;2023-02-18T04:00:21;101863.94;;;9.42;100.00
71976;BME280;60680;52.182;5.398;2023-02-18T04:02:48;101866.47;;;9.43;100.00
71976;BME280;60680;52.182;5.398;2023-02-18T04:05:14;101856.09;;;9.43;100.00
71976;BME280;60680;52.182;5.398;2023-02-18T04:07:41;101859.50;;;9.45;100.00
71976;BME280;60680;52.182;5.398;2023-02-18T04:10:07;101854.38;;;9.44;100.00
71976;BME280;60680;52.182;5.398;2023-02-18T04:12:34;101850.00;;;9.44;100.00
71976;BME280;60680;52.182;5.398;2023-02-18T04:15:01;101837.03;;;9.44;100.00
71976;BME280;60680;52.182;5.398;2023-02-18T04:17:27;101834.38;;;9.46;100.00
71976;BME280;60680;52.182;5.398;2023-02-18T04:19:53;101824.84;;;9.46;100.00
71976;BME280;60680;52.182;5.398;2023-02-18T04:22:20;101833.44;;;9.48;100.00
71976;BME280;60680;52.182;5.398;2023-02-18T04:24:46;101825.56;;;9.50;100.00
71976;BME280;60680;52.182;5.398;2023-02-18T04:27:13;101819.53;;;9.49;100.00
71976;BME280;60680;52.182;5.398;2023-02-18T04:29:39;101818.59;;;9.52;100.00
71976;BME280;60680;52.182;5.398;2023-02-18T04:32:06;101817.69;;;9.53;100.00
71976;BME280;60680;52.182;5.398;2023-02-18T04:34:32;101820.25;;;9.54;100.00
71976;BME280;60680;52.182;5.398;2023-02-18T04:36:59;101817.59;;;9.56;100.00
71976;BME280;60680;52.182;5.398;2023-02-18T04:39:25;101813.28;;;9.56;100.00
71976;BME280;60680;52.182;5.398;2023-02-18T04:41:52;101803.72;;;9.57;100.00
71976;BME280;60680;52.182;5.398;2023-02-18T04:44:18;101796.78;;;9.57;100.00
71976;BME280;60680;52.182;5.398;2023-02-18T04:46:45;101789.88;;;9.56;100.00
71976;BME280;60680;52.182;5.398;2023-02-18T04:49:11;101795.09;;;9.56;100.00
71976;BME280;60680;52.182;5.398;2023-02-18T04:51:38;101798.53;;;9.57;100.00
71976;BME280;60680;52.182;5.398;2023-02-18T04:54:04;101776.91;;;9.56;100.00
71976;BME280;60680;52.182;5.398;2023-02-18T04:56:30;101777.78;;;9.55;100.00
71976;BME280;60680;52.182;5.398;2023-02-18T04:58:57;101777.78;;;9.55;100.00
71976;BME280;60680;52.182;5.398;2023-02-18T05:01:23;101775.19;;;9.55;100.00
71976;BME280;60680;52.182;5.398;2023-02-18T05:03:50;101780.38;;;9.55;100.00
71976;BME280;60680;52.182;5.398;2023-02-18T05:06:16;101779.53;;;9.55;100.00
71976;BME280;60680;52.182;5.398;2023-02-18T05:08:43;101785.56;;;9.55;100.00
71976;BME280;60680;52.182;5.398;2023-02-18T05:11:09;101782.09;;;9.56;100.00
71976;BME280;60680;52.182;5.398;2023-02-18T05:13:36;101770.81;;;9.56;100.00
71976;BME280;60680;52.182;5.398;2023-02-18T05:16:02;101779.50;;;9.56;100.00
71976;BME280;60680;52.182;5.398;2023-02-18T05:18:29;101781.22;;;9.56;100.00
71976;BME280;60680;52.182;5.398;2023-02-18T05:20:55;101776.03;;;9.56;100.00
71976;BME280;60680;52.182;5.398;2023-02-18T05:23:22;101776.03;;;9.56;100.00
71976;BME280;60680;52.182;5.398;2023-02-18T05:25:49;101769.97;;;9.55;100.00
71976;BME280;60680;52.182;5.398;2023-02-18T05:28:16;101765.63;;;9.56;100.00
71976;BME280;60680;52.182;5.398;2023-02-18T05:30:42;101759.59;;;9.55;100.00
71976;BME280;60680;52.182;5.398;2023-02-18T05:33:09;101762.19;;;9.55;100.00
71976;BME280;60680;52.182;5.398;2023-02-18T05:35:35;101756.16;;;9.55;100.00
71976;BME280;60680;52.182;5.398;2023-02-18T05:38:02;101750.94;;;9.55;100.00
71976;BME280;60680;52.182;5.398;2023-02-18T05:40:29;101746.59;;;9.55;100.00
71976;BME280;60680;52.182;5.398;2023-02-18T05:42:55;101735.31;;;9.56;100.00
71976;BME280;60680;52.182;5.398;2023-02-18T05:45:22;101727.53;;;9.56;100.00
71976;BME280;60680;52.182;5.398;2023-02-18T05:47:48;101722.25;;;9.58;100.00
71976;BME280;60680;52.182;5.398;2023-02-18T05:50:15;101723.97;;;9.59;100.00
71976;BME280;60680;52.182;5.398;2023-02-18T05:52:41;101736.94;;;9.61;100.00
71976;BME280;60680;52.182;5.398;2023-02-18T05:55:08;101728.22;;;9.62;100.00
71976;BME280;60680;52.182;5.398;2023-02-18T05:57:34;101732.50;;;9.63;100.00
71976;BME280;60680;52.182;5.398;2023-02-18T06:00:00;101728.09;;;9.65;100.00
71976;BME280;60680;52.182;5.398;2023-02-18T06:02:27;101714.19;;;9.67;100.00
71976;BME280;60680;52.182;5.398;2023-02-18T06:04:53;101727.19;;;9.67;100.00
71976;BME280;60680;52.182;5.398;2023-02-18T06:07:20;101739.22;;;9.70;100.00
71976;BME280;60680;52.182;5.398;2023-02-18T06:09:47;101729.66;;;9.70;100.00
71976;BME280;60680;52.182;5.398;2023-02-18T06:12:13;101740.06;;;9.70;100.00
71976;BME280;60680;52.182;5.398;2023-02-18T06:14:39;101739.09;;;9.73;100.00
71976;BME280;60680;52.182;5.398;2023-02-18T06:17:08;101739.91;;;9.75;100.00
71976;BME280;60680;52.182;5.398;2023-02-18T06:19:36;101739.91;;;9.75;100.00
71976;BME280;60680;52.182;5.398;2023-02-18T06:22:03;101732.09;;;9.75;100.00
71976;BME280;60680;52.182;5.398;2023-02-18T06:24:29;101739.03;;;9.76;100.00
71976;BME280;60680;52.182;5.398;2023-02-18T06:26:56;101732.09;;;9.75;100.00
71976;BME280;60680;52.182;5.398;2023-02-18T06:29:22;101734.66;;;9.76;100.00
71976;BME280;60680;52.182;5.398;2023-02-18T06:31:49;101733.81;;;9.76;100.00
71976;BME280;60680;52.182;5.398;2023-02-18T06:34:16;101726.03;;;9.76;100.00
71976;BME280;60680;52.182;5.398;2023-02-18T06:36:42;101737.28;;;9.76;100.00
71976;BME280;60680;52.182;5.398;2023-02-18T06:39:09;101725.13;;;9.77;100.00
71976;BME280;60680;52.182;5.398;2023-02-18T06:41:35;101725.97;;;9.77;100.00
71976;BME280;60680;52.182;5.398;2023-02-18T06:44:02;101746.72;;;9.79;100.00
71976;BME280;60680;52.182;5.398;2023-02-18T06:46:28;101736.31;;;9.79;100.00
71976;BME280;60680;52.182;5.398;2023-02-18T06:48:55;101742.34;;;9.79;100.00
71976;BME280;60680;52.182;5.398;2023-02-18T06:51:22;101743.22;;;9.80;100.00
71976;BME280;60680;52.182;5.398;2023-02-18T06:53:48;101738.91;;;9.79;100.00
71976;BME280;60680;52.182;5.398;2023-02-18T06:56:15;101741.50;;;9.79;100.00
71976;BME280;60680;52.182;5.398;2023-02-18T06:58:41;101736.31;;;9.79;100.00
71976;BME280;60680;52.182;5.398;2023-02-18T07:01:08;101730.31;;;9.77;100.00
71976;BME280;60680;52.182;5.398;2023-02-18T07:03:34;101728.63;;;9.76;100.00
71976;BME280;60680;52.182;5.398;2023-02-18T07:06:01;101732.09;;;9.75;100.00
71976;BME280;60680;52.182;5.398;2023-02-18T07:08:27;101726.97;;;9.73;100.00
71976;BME280;60680;52.182;5.398;2023-02-18T07:10:56;101714.84;;;9.74;100.00
71976;BME280;60680;52.182;5.398;2023-02-18T07:13:22;101715.72;;;9.73;100.00
71976;BME280;60680;52.182;5.398;2023-02-18T07:15:49;101727.81;;;9.74;100.00
71976;BME280;60680;52.182;5.398;2023-02-18T07:18:15;101714.84;;;9.74;100.00
71976;BME280;60680;52.182;5.398;2023-02-18T07:20:41;101716.50;;;9.75;100.00
71976;BME280;60680;52.182;5.398;2023-02-18T07:23:08;101731.22;;;9.76;100.00
71976;BME280;60680;52.182;5.398;2023-02-18T07:25:36;101718.28;;;9.74;100.00
71976;BME280;60680;52.182;5.398;2023-02-18T07:28:02;101722.59;;;9.75;100.00
71976;BME280;60680;52.182;5.398;2023-02-18T07:30:29;101720.88;;;9.74;100.00
71976;BME280;60680;52.182;5.398;2023-02-18T07:32:56;101706.19;;;9.73;100.00
71976;BME280;60680;52.182;5.398;2023-02-18T07:35:22;101709.63;;;9.74;100.00
71976;BME280;60680;52.182;5.398;2023-02-18T07:37:49;101704.44;;;9.74;100.00
71976;BME280;60680;52.182;5.398;2023-02-18T07:40:19;101701.78;;;9.75;100.00
71976;BME280;60680;52.182;5.398;2023-02-18T07:42:46;101703.53;;;9.75;100.00
71976;BME280;60680;52.182;5.398;2023-02-18T07:45:13;101702.63;;;9.76;100.00
71976;BME280;60680;52.182;5.398;2023-02-18T07:47:40;101701.72;;;9.77;100.00
71976;BME280;60680;52.182;5.398;2023-02-18T07:50:08;101712.97;;;9.77;100.00
71976;BME280;60680;52.182;5.398;2023-02-18T07:52:35;101710.34;;;9.77;100.00
71976;BME280;60680;52.182;5.398;2023-02-18T07:55:01;101714.69;;;9.78;100.00
71976;BME280;60680;52.182;5.398;2023-02-18T07:57:28;101706.91;;;9.77;100.00
71976;BME280;60680;52.182;5.398;2023-02-18T07:59:54;101717.38;;;9.75;100.00
71976;BME280;60680;52.182;5.398;2023-02-18T08:02:22;101726.03;;;9.76;100.00
71976;BME280;60680;52.182;5.398;2023-02-18T08:04:49;101716.59;;;9.73;100.00
71976;BME280;60680;52.182;5.398;2023-02-18T08:07:17;101728.78;;;9.71;100.00
71976;BME280;60680;52.182;5.398;2023-02-18T08:09:44;101726.97;;;9.73;100.00
71976;BME280;60680;52.182;5.398;2023-02-18T08:12:11;101728.66;;;9.74;100.00
71976;BME280;60680;52.182;5.398;2023-02-18T08:14:37;101726.09;;;9.73;100.00
71976;BME280;60680;52.182;5.398;2023-02-18T08:17:04;101731.31;;;9.73;100.00
71976;BME280;60680;52.182;5.398;2023-02-18T08:19:30;101727.88;;;9.72;100.00
71976;BME280;60680;52.182;5.398;2023-02-18T08:22:00;101733.03;;;9.74;100.00
71976;BME280;60680;52.182;5.398;2023-02-18T08:24:27;101749.47;;;9.74;100.00
71976;BME280;60680;52.182;5.398;2023-02-18T08:26:53;101751.25;;;9.72;100.00
71976;BME280;60680;52.182;5.398;2023-02-18T08:29:26;101746.19;;;9.69;100.00
71976;BME280;60680;52.182;5.398;2023-02-18T08:31:53;101749.78;;;9.65;100.00
71976;BME280;60680;52.182;5.398;2023-02-18T08:34:20;101745.56;;;9.61;100.00
71976;BME280;60680;52.182;5.398;2023-02-18T08:36:46;101756.91;;;9.58;100.00
71976;BME280;60680;52.182;5.398;2023-02-18T08:39:13;101741.41;;;9.55;100.00
71976;BME280;60680;52.182;5.398;2023-02-18T08:41:39;101754.41;;;9.55;100.00
71976;BME280;60680;52.182;5.398;2023-02-18T08:44:06;101736.25;;;9.54;100.00
71976;BME280;60680;52.182;5.398;2023-02-18T08:46:32;101744.09;;;9.52;100.00
71976;BME280;60680;52.182;5.398;2023-02-18T08:49:01;101748.44;;;9.52;100.00
71976;BME280;60680;52.182;5.398;2023-02-18T08:51:27;101743.31;;;9.50;100.00
71976;BME280;60680;52.182;5.398;2023-02-18T08:53:53;101731.19;;;9.49;100.00
71976;BME280;60680;52.182;5.398;2023-02-18T08:56:20;101736.44;;;9.48;100.00
71976;BME280;60680;52.182;5.398;2023-02-18T08:58:46;101744.31;;;9.46;100.00
71976;BME280;60680;52.182;5.398;2023-02-18T09:01:13;101752.09;;;9.46;100.00
71976;BME280;60680;52.182;5.398;2023-02-18T09:03:39;101759.78;;;9.49;100.00
71976;BME280;60680;52.182;5.398;2023-02-18T09:06:07;101750.38;;;9.45;100.00
71976;BME280;60680;52.182;5.398;2023-02-18T09:08:33;101760.72;;;9.47;100.00
71976;BME280;60680;52.182;5.398;2023-02-18T09:11:01;101750.34;;;9.47;100.00
71976;BME280;60680;52.182;5.398;2023-02-18T09:13:30;101754.69;;;9.46;100.00
71976;BME280;60680;52.182;5.398;2023-02-18T09:16:01;101752.81;;;9.50;100.00
71976;BME280;60680;52.182;5.398;2023-02-18T09:18:30;101754.53;;;9.51;100.00
71976;BME280;60680;52.182;5.398;2023-02-18T09:20:58;101755.34;;;9.53;100.00
71976;BME280;60680;52.182;5.398;2023-02-18T09:23:26;101748.41;;;9.53;100.00
71976;BME280;60680;52.182;5.398;2023-02-18T09:25:54;101750.09;;;9.54;100.00
71976;BME280;60680;52.182;5.398;2023-02-18T09:28:20;101758.72;;;9.56;100.00
71976;BME280;60680;52.182;5.398;2023-02-18T09:30:47;101765.59;;;9.57;100.00
71976;BME280;60680;52.182;5.398;2023-02-18T09:33:14;101771.59;;;9.59;100.00
71976;BME280;60680;52.182;5.398;2023-02-18T09:35:41;101761.16;;;9.61;100.00
71976;BME280;60680;52.182;5.398;2023-02-18T09:38:09;101766.28;;;9.63;100.00
71976;BME280;60680;52.182;5.398;2023-02-18T09:40:39;101768.81;;;9.66;100.00
71976;BME280;60680;52.182;5.398;2023-02-18T09:43:17;101774.81;;;9.68;100.00
71976;BME280;60680;52.182;5.398;2023-02-18T09:45:44;101782.56;;;9.69;100.00
71976;BME280;60680;52.182;5.398;2023-02-18T09:48:11;101770.38;;;9.71;99.60
71976;BME280;60680;52.182;5.398;2023-02-18T09:50:37;101784.22;;;9.72;99.46
71976;BME280;60680;52.182;5.398;2023-02-18T09:53:04;101783.28;;;9.73;99.67
71976;BME280;60680;52.182;5.398;2023-02-18T09:55:39;101795.25;;;9.78;99.02
71976;BME280;60680;52.182;5.398;2023-02-18T09:58:15;101773.50;;;9.81;99.22
71976;BME280;60680;52.182;5.398;2023-02-18T10:01:01;101776.06;;;9.83;99.20
71976;BME280;60680;52.182;5.398;2023-02-18T10:03:29;101778.66;;;9.83;98.84
71976;BME280;60680;52.182;5.398;2023-02-18T10:05:59;101793.31;;;9.85;98.62
71976;BME280;60680;52.182;5.398;2023-02-18T10:08:31;101801.91;;;9.87;97.88
71976;BME280;60680;52.182;5.398;2023-02-18T10:10:59;101798.34;;;9.90;98.00
71976;BME280;60680;52.182;5.398;2023-02-18T10:13:29;101799.81;;;9.98;97.32
71976;BME280;60680;52.182;5.398;2023-02-18T10:15:56;101796.19;;;10.03;96.89
71976;BME280;60680;52.182;5.398;2023-02-18T10:18:31;101788.31;;;10.06;96.73
71976;BME280;60680;52.182;5.398;2023-02-18T10:21:08;101785.72;;;10.06;96.61
71976;BME280;60680;52.182;5.398;2023-02-18T10:23:38;101800.25;;;10.11;96.58
71976;BME280;60680;52.182;5.398;2023-02-18T10:26:10;101787.13;;;10.16;96.58
71976;BME280;60680;52.182;5.398;2023-02-18T10:28:38;101795.72;;;10.18;95.90
71976;BME280;60680;52.182;5.398;2023-02-18T10:31:08;101795.66;;;10.19;96.50
71976;BME280;60680;52.182;5.398;2023-02-18T10:34:11;101786.69;;;10.28;96.20
71976;BME280;60680;52.182;5.398;2023-02-18T10:36:45;101800.31;;;10.36;96.13
71976;BME280;60680;52.182;5.398;2023-02-18T10:39:20;101811.34;;;10.43;95.97
71976;BME280;60680;52.182;5.398;2023-02-18T10:45:11;101810.34;;;10.47;95.36
71976;BME280;60680;52.182;5.398;2023-02-18T10:50:34;101818.50;;;10.63;94.66
71976;BME280;60680;52.182;5.398;2023-02-18T10:53:10;101823.56;;;10.66;94.24
71976;BME280;60680;52.182;5.398;2023-02-18T10:55:41;101805.19;;;10.71;94.07
71976;BME280;60680;52.182;5.398;2023-02-18T10:58:45;101803.91;;;10.82;94.42
71976;BME280;60680;52.182;5.398;2023-02-18T11:01:19;101816.66;;;10.90;94.40
71976;BME280;60680;52.182;5.398;2023-02-18T11:03:49;101821.75;;;10.93;93.50
71976;BME280;60680;52.182;5.398;2023-02-18T11:08:44;101824.13;;;10.99;93.42
71976;BME280;60680;52.182;5.398;2023-02-18T11:11:18;101819.31;;;11.12;93.02
71976;BME280;60680;52.182;5.398;2023-02-18T11:13:52;101818.41;;;11.13;92.80
71976;BME280;60680;52.182;5.398;2023-02-18T11:16:23;101814.91;;;11.14;92.80
71976;BME280;60680;52.182;5.398;2023-02-18T11:19:01;101802.63;;;11.18;92.36
71976;BME280;60680;52.182;5.398;2023-02-18T11:21:36;101806.13;;;11.17;92.37
71976;BME280;60680;52.182;5.398;2023-02-18T11:24:11;101827.25;;;11.09;92.76
71976;BME280;60680;52.182;5.398;2023-02-18T11:26:40;101818.59;;;11.09;93.28
71976;BME280;60680;52.182;5.398;2023-02-18T11:29:22;101808.88;;;11.14;93.09
71976;BME280;60680;52.182;5.398;2023-02-18T11:31:52;101826.53;;;11.06;92.79
71976;BME280;60680;52.182;5.398;2023-02-18T11:34:29;101824.22;;;10.96;93.21
71976;BME280;60680;52.182;5.398;2023-02-18T11:37:16;101829.63;;;10.92;95.25
71976;BME280;60680;52.182;5.398;2023-02-18T11:39:45;101822.97;;;10.83;97.05
71976;BME280;60680;52.182;5.398;2023-02-18T11:42:14;101821.34;;;10.80;97.12
71976;BME280;60680;52.182;5.398;2023-02-18T11:44:49;101820.28;;;10.86;97.65
71976;BME280;60680;52.182;5.398;2023-02-18T11:52:28;101818.47;;;10.88;97.06
71976;BME280;60680;52.182;5.398;2023-02-18T11:55:18;101819.19;;;10.92;97.55
71976;BME280;60680;52.182;5.398;2023-02-18T12:00:24;101821.81;;;10.92;96.40
71976;BME280;60680;52.182;5.398;2023-02-18T12:02:58;101832.00;;;10.98;96.18
71976;BME280;60680;52.182;5.398;2023-02-18T12:05:27;101824.19;;;10.98;95.48
71976;BME280;60680;52.182;5.398;2023-02-18T12:10:32;101818.97;;;10.98;95.92
71976;BME280;60680;52.182;5.398;2023-02-18T12:13:18;101811.91;;;11.01;95.61
71976;BME280;60680;52.182;5.398;2023-02-18T12:27:16;101808.78;;;11.15;93.32
71976;BME280;60680;52.182;5.398;2023-02-18T12:32:43;101813.44;;;11.31;93.61
71976;BME280;60680;52.182;5.398;2023-02-18T12:35:36;101806.16;;;11.39;93.37
71976;BME280;60680;52.182;5.398;2023-02-18T12:38:25;101798.78;;;11.50;93.21
71976;BME280;60680;52.182;5.398;2023-02-18T12:43:53;101813.59;;;11.50;92.20
71976;BME280;60680;52.182;5.398;2023-02-18T12:46:35;101816.25;;;11.48;92.90
71976;BME280;60680;52.182;5.398;2023-02-18T12:57:17;101817.28;;;11.66;92.38
71976;BME280;60680;52.182;5.398;2023-02-18T12:59:54;101823.78;;;11.78;91.37
71976;BME280;60680;52.182;5.398;2023-02-18T13:05:55;101826.94;;;11.86;91.70
71976;BME280;60680;52.182;5.398;2023-02-18T13:08:50;101824.56;;;11.80;91.45
71976;BME280;60680;52.182;5.398;2023-02-18T13:16:31;101831.56;;;11.56;91.59
71976;BME280;60680;52.182;5.398;2023-02-18T13:21:47;101828.50;;;11.46;92.45
71976;BME280;60680;52.182;5.398;2023-02-18T13:24:30;101825.19;;;11.41;92.60
71976;BME280;60680;52.182;5.398;2023-02-18T13:27:10;101833.00;;;11.41;92.67
71976;BME280;60680;52.182;5.398;2023-02-18T13:29:49;101826.91;;;11.42;92.14
71976;BME280;60680;52.182;5.398;2023-02-18T13:35:00;101831.13;;;11.45;92.78
71976;BME280;60680;52.182;5.398;2023-02-18T13:40:28;101836.91;;;11.53;92.20
71976;BME280;60680;52.182;5.398;2023-02-18T13:43:27;101841.06;;;11.58;92.42
71976;BME280;60680;52.182;5.398;2023-02-18T13:48:39;101828.69;;;11.63;90.78
71976;BME280;60680;52.182;5.398;2023-02-18T13:51:08;101836.31;;;11.68;91.02
71976;BME280;60680;52.182;5.398;2023-02-18T13:53:37;101843.91;;;11.74;90.12
71976;BME280;60680;52.182;5.398;2023-02-18T13:56:25;101836.69;;;11.81;90.66
71976;BME280;60680;52.182;5.398;2023-02-18T13:59:08;101846.09;;;11.85;90.01
71976;BME280;60680;52.182;5.398;2023-02-18T14:10:00;101850.72;;;12.00;89.04
71976;BME280;60680;52.182;5.398;2023-02-18T14:12:36;101854.19;;;12.01;88.29
71976;BME280;60680;52.182;5.398;2023-02-18T14:36:27;101867.66;;;12.12;88.21
71976;BME280;60680;52.182;5.398;2023-02-18T14:39:11;101867.59;;;12.14;88.09
71976;BME280;60680;52.182;5.398;2023-02-18T14:45:04;101860.59;;;12.14;87.59
71976;BME280;60680;52.182;5.398;2023-02-18T14:50:31;101866.22;;;12.05;88.38
71976;BME280;60680;52.182;5.398;2023-02-18T14:53:03;101856.81;;;12.01;88.90
71976;BME280;60680;52.182;5.398;2023-02-18T14:55:33;101861.34;;;11.96;88.22
71976;BME280;60680;52.182;5.398;2023-02-18T14:58:04;101863.16;;;11.94;88.83
71976;BME280;60680;52.182;5.398;2023-02-18T15:00:34;101871.06;;;11.92;89.39
71976;BME280;60680;52.182;5.398;2023-02-18T15:03:12;101868.50;;;11.91;89.66
71976;BME280;60680;52.182;5.398;2023-02-18T15:05:39;101866.91;;;11.87;89.22
71976;BME280;60680;52.182;5.398;2023-02-18T15:08:13;101860.94;;;11.83;89.10
71976;BME280;60680;52.182;5.398;2023-02-18T15:10:45;101861.88;;;11.82;90.24
71976;BME280;60680;52.182;5.398;2023-02-18T15:13:18;101862.66;;;11.84;89.89
71976;BME280;60680;52.182;5.398;2023-02-18T15:15:51;101872.31;;;11.82;90.15
71976;BME280;60680;52.182;5.398;2023-02-18T15:18:28;101867.97;;;11.81;90.04
71976;BME280;60680;52.182;5.398;2023-02-18T15:20:59;101865.44;;;11.79;89.83